Incourt, Belgium
Current Conditions -  °F | °C
As of 1:25 PM on Saturday 25 Oct 2014 (Local Time) from EBBE Reporting Station
Overcast Overcast  
Wind Chill: 55°   Ceiling: 600
Heat Index: 55°   Visibility: 4mi
Dew Point: 54°   Wind: 9mph
Humidity: 94%   Direction: 240°WSW
Pressure: 30.12"   Gusts: NA
Location:  50.69°N, 4.8°E
Report Text: EBBE 251125Z AUTO 24008KT 6000 OVC006/// 13/12 Q1020 YLO
Loading
Personal Weather Stations






























Interactive Weather Map New forecast layout! Learn more

10-Day Weather Forecast

Advertisements
Track Severe Weather on mobile